sensor_id;sensor_type;location;lat;lon;timestamp;temperature;humidity
69503;SHT31;56704;54.242;12.442;2023-04-24T00:00:55;10.34;83.63
69503;SHT31;56704;54.242;12.442;2023-04-24T00:03:22;10.30;83.70
69503;SHT31;56704;54.242;12.442;2023-04-24T00:05:49;10.33;83.69
69503;SHT31;56704;54.242;12.442;2023-04-24T00:08:16;10.34;83.60
69503;SHT31;56704;54.242;12.442;2023-04-24T00:10:43;10.33;84.02
69503;SHT31;56704;54.242;12.442;2023-04-24T00:13:09;10.27;83.79
69503;SHT31;56704;54.242;12.442;2023-04-24T00:15:36;10.30;84.21
69503;SHT31;56704;54.242;12.442;2023-04-24T00:18:04;10.25;84.25
69503;SHT31;56704;54.242;12.442;2023-04-24T00:20:31;10.21;84.22
69503;SHT31;56704;54.242;12.442;2023-04-24T00:22:58;10.22;84.25
69503;SHT31;56704;54.242;12.442;2023-04-24T00:25:25;10.22;84.66
69503;SHT31;56704;54.242;12.442;2023-04-24T00:27:51;10.20;84.26
69503;SHT31;56704;54.242;12.442;2023-04-24T00:30:18;10.24;84.46
69503;SHT31;56704;54.242;12.442;2023-04-24T00:32:44;10.24;84.54
69503;SHT31;56704;54.242;12.442;2023-04-24T00:35:12;10.24;84.25
69503;SHT31;56704;54.242;12.442;2023-04-24T00:37:39;10.21;84.30
69503;SHT31;56704;54.242;12.442;2023-04-24T00:40:07;10.22;84.20
69503;SHT31;56704;54.242;12.442;2023-04-24T00:42:34;10.21;84.06
69503;SHT31;56704;54.242;12.442;2023-04-24T00:45:00;10.24;84.24
69503;SHT31;56704;54.242;12.442;2023-04-24T00:47:28;10.18;84.13
69503;SHT31;56704;54.242;12.442;2023-04-24T00:49:55;10.20;84.08
69503;SHT31;56704;54.242;12.442;2023-04-24T00:52:23;10.25;84.06
69503;SHT31;56704;54.242;12.442;2023-04-24T00:54:50;10.20;84.23
69503;SHT31;56704;54.242;12.442;2023-04-24T00:57:17;10.14;84.15
69503;SHT31;56704;54.242;12.442;2023-04-24T00:59:44;10.10;84.33
69503;SHT31;56704;54.242;12.442;2023-04-24T01:02:11;10.09;84.75
69503;SHT31;56704;54.242;12.442;2023-04-24T01:04:38;10.06;84.61
69503;SHT31;56704;54.242;12.442;2023-04-24T01:07:05;9.97;84.97
69503;SHT31;56704;54.242;12.442;2023-04-24T01:09:38;9.90;85.01
69503;SHT31;56704;54.242;12.442;2023-04-24T01:12:06;9.87;85.21
69503;SHT31;56704;54.242;12.442;2023-04-24T01:14:33;9.79;85.50
69503;SHT31;56704;54.242;12.442;2023-04-24T01:17:00;9.79;85.87
69503;SHT31;56704;54.242;12.442;2023-04-24T01:19:27;9.78;85.89
69503;SHT31;56704;54.242;12.442;2023-04-24T01:21:54;9.75;86.14
69503;SHT31;56704;54.242;12.442;2023-04-24T01:24:24;9.68;86.41
69503;SHT31;56704;54.242;12.442;2023-04-24T01:26:51;9.62;86.85
69503;SHT31;56704;54.242;12.442;2023-04-24T01:29:18;9.62;87.03
69503;SHT31;56704;54.242;12.442;2023-04-24T01:31:44;9.59;87.11
69503;SHT31;56704;54.242;12.442;2023-04-24T01:34:11;9.56;87.13
69503;SHT31;56704;54.242;12.442;2023-04-24T01:36:38;9.63;87.58
69503;SHT31;56704;54.242;12.442;2023-04-24T01:39:06;9.65;87.44
69503;SHT31;56704;54.242;12.442;2023-04-24T01:41:34;9.69;87.54
69503;SHT31;56704;54.242;12.442;2023-04-24T01:44:01;9.65;87.49
69503;SHT31;56704;54.242;12.442;2023-04-24T01:46:28;9.63;87.68
69503;SHT31;56704;54.242;12.442;2023-04-24T01:48:55;9.65;87.57
69503;SHT31;56704;54.242;12.442;2023-04-24T01:51:23;9.65;87.52
69503;SHT31;56704;54.242;12.442;2023-04-24T01:53:49;9.66;87.88
69503;SHT31;56704;54.242;12.442;2023-04-24T01:56:16;9.68;87.83
69503;SHT31;56704;54.242;12.442;2023-04-24T01:58:44;9.69;87.69
69503;SHT31;56704;54.242;12.442;2023-04-24T02:01:15;9.72;87.63
69503;SHT31;56704;54.242;12.442;2023-04-24T02:03:43;9.68;87.83
69503;SHT31;56704;54.242;12.442;2023-04-24T02:06:10;9.72;87.84
69503;SHT31;56704;54.242;12.442;2023-04-24T02:08:37;9.75;87.87
69503;SHT31;56704;54.242;12.442;2023-04-24T02:11:03;9.76;87.90
69503;SHT31;56704;54.242;12.442;2023-04-24T02:13:31;9.86;87.70
69503;SHT31;56704;54.242;12.442;2023-04-24T02:15:59;9.85;87.63
69503;SHT31;56704;54.242;12.442;2023-04-24T02:18:25;9.87;87.35
69503;SHT31;56704;54.242;12.442;2023-04-24T02:20:52;9.87;87.38
69503;SHT31;56704;54.242;12.442;2023-04-24T02:23:19;9.87;87.33
69503;SHT31;56704;54.242;12.442;2023-04-24T02:25:45;9.87;87.71
69503;SHT31;56704;54.242;12.442;2023-04-24T02:28:12;9.92;87.68
69503;SHT31;56704;54.242;12.442;2023-04-24T02:30:39;9.94;87.61
69503;SHT31;56704;54.242;12.442;2023-04-24T02:33:07;9.94;87.56
69503;SHT31;56704;54.242;12.442;2023-04-24T02:35:33;9.94;87.37
69503;SHT31;56704;54.242;12.442;2023-04-24T02:38:00;9.92;87.57
69503;SHT31;56704;54.242;12.442;2023-04-24T02:40:26;9.87;87.75
69503;SHT31;56704;54.242;12.442;2023-04-24T02:42:53;9.85;87.87
69503;SHT31;56704;54.242;12.442;2023-04-24T02:45:21;9.89;87.89
69503;SHT31;56704;54.242;12.442;2023-04-24T02:47:47;9.89;87.84
69503;SHT31;56704;54.242;12.442;2023-04-24T02:50:15;9.85;88.18
69503;SHT31;56704;54.242;12.442;2023-04-24T02:52:42;9.82;88.20
69503;SHT31;56704;54.242;12.442;2023-04-24T02:55:09;9.89;88.33
69503;SHT31;56704;54.242;12.442;2023-04-24T02:57:35;9.92;88.22
69503;SHT31;56704;54.242;12.442;2023-04-24T03:00:02;9.92;88.27
69503;SHT31;56704;54.242;12.442;2023-04-24T03:02:32;9.94;88.50
69503;SHT31;56704;54.242;12.442;2023-04-24T03:04:59;9.97;88.31
69503;SHT31;56704;54.242;12.442;2023-04-24T03:07:27;10.00;88.47
69503;SHT31;56704;54.242;12.442;2023-04-24T03:09:53;10.00;88.57
69503;SHT31;56704;54.242;12.442;2023-04-24T03:12:21;9.99;88.54
69503;SHT31;56704;54.242;12.442;2023-04-24T03:14:49;9.97;88.48
69503;SHT31;56704;54.242;12.442;2023-04-24T03:17:15;10.01;88.37
69503;SHT31;56704;54.242;12.442;2023-04-24T03:19:42;9.97;88.47
69503;SHT31;56704;54.242;12.442;2023-04-24T03:22:08;10.00;88.42
69503;SHT31;56704;54.242;12.442;2023-04-24T03:24:36;10.04;88.48
69503;SHT31;56704;54.242;12.442;2023-04-24T03:27:03;10.01;88.45
69503;SHT31;56704;54.242;12.442;2023-04-24T03:29:29;10.06;88.41
69503;SHT31;56704;54.242;12.442;2023-04-24T03:31:56;10.09;88.59
69503;SHT31;56704;54.242;12.442;2023-04-24T03:34:23;10.04;88.69
69503;SHT31;56704;54.242;12.442;2023-04-24T03:36:49;10.09;88.75
69503;SHT31;56704;54.242;12.442;2023-04-24T03:39:16;10.01;89.54
69503;SHT31;56704;54.242;12.442;2023-04-24T03:41:44;9.97;90.05
69503;SHT31;56704;54.242;12.442;2023-04-24T03:44:10;9.96;90.62
69503;SHT31;56704;54.242;12.442;2023-04-24T03:46:37;9.96;90.61
69503;SHT31;56704;54.242;12.442;2023-04-24T03:49:03;9.97;90.68
69503;SHT31;56704;54.242;12.442;2023-04-24T03:51:30;9.93;90.80
69503;SHT31;56704;54.242;12.442;2023-04-24T03:53:57;9.89;90.78
69503;SHT31;56704;54.242;12.442;2023-04-24T03:56:23;9.92;90.72
69503;SHT31;56704;54.242;12.442;2023-04-24T03:58:51;9.92;90.98
69503;SHT31;56704;54.242;12.442;2023-04-24T04:01:18;9.92;91.51
69503;SHT31;56704;54.242;12.442;2023-04-24T04:03:46;9.87;91.44
69503;SHT31;56704;54.242;12.442;2023-04-24T04:06:12;9.82;91.33
69503;SHT31;56704;54.242;12.442;2023-04-24T04:08:39;9.80;91.78
69503;SHT31;56704;54.242;12.442;2023-04-24T04:11:05;9.82;92.11
69503;SHT31;56704;54.242;12.442;2023-04-24T04:13:32;9.80;92.31
69503;SHT31;56704;54.242;12.442;2023-04-24T04:16:00;9.85;92.06
69503;SHT31;56704;54.242;12.442;2023-04-24T04:18:26;9.82;92.00
69503;SHT31;56704;54.242;12.442;2023-04-24T04:20:53;9.89;92.17
69503;SHT31;56704;54.242;12.442;2023-04-24T04:23:20;9.93;92.03
69503;SHT31;56704;54.242;12.442;2023-04-24T04:25:46;9.90;91.72
69503;SHT31;56704;54.242;12.442;2023-04-24T04:28:13;9.94;91.97
69503;SHT31;56704;54.242;12.442;2023-04-24T04:30:40;9.93;91.77
69503;SHT31;56704;54.242;12.442;2023-04-24T04:33:09;9.93;91.90
69503;SHT31;56704;54.242;12.442;2023-04-24T04:35:35;9.97;91.84
69503;SHT31;56704;54.242;12.442;2023-04-24T04:38:02;9.97;91.73
69503;SHT31;56704;54.242;12.442;2023-04-24T04:40:30;9.97;91.95
69503;SHT31;56704;54.242;12.442;2023-04-24T04:42:56;9.99;91.90
69503;SHT31;56704;54.242;12.442;2023-04-24T04:45:23;9.96;92.01
69503;SHT31;56704;54.242;12.442;2023-04-24T04:47:52;9.94;92.12
69503;SHT31;56704;54.242;12.442;2023-04-24T04:50:21;9.92;92.09
69503;SHT31;56704;54.242;12.442;2023-04-24T04:52:48;9.93;92.27
69503;SHT31;56704;54.242;12.442;2023-04-24T04:55:14;9.96;92.36
69503;SHT31;56704;54.242;12.442;2023-04-24T04:57:46;9.89;92.05
69503;SHT31;56704;54.242;12.442;2023-04-24T05:00:13;9.93;92.33
69503;SHT31;56704;54.242;12.442;2023-04-24T05:02:40;9.93;92.43
69503;SHT31;56704;54.242;12.442;2023-04-24T05:05:08;9.93;92.28
69503;SHT31;56704;54.242;12.442;2023-04-24T05:07:36;9.94;92.35
69503;SHT31;56704;54.242;12.442;2023-04-24T05:10:03;9.96;92.45
69503;SHT31;56704;54.242;12.442;2023-04-24T05:12:30;10.00;92.54
69503;SHT31;56704;54.242;12.442;2023-04-24T05:14:56;10.06;92.69
69503;SHT31;56704;54.242;12.442;2023-04-24T05:17:23;10.06;92.74
69503;SHT31;56704;54.242;12.442;2023-04-24T05:19:49;10.11;92.67
69503;SHT31;56704;54.242;12.442;2023-04-24T05:22:16;10.17;92.50
69503;SHT31;56704;54.242;12.442;2023-04-24T05:24:45;10.20;92.54
69503;SHT31;56704;54.242;12.442;2023-04-24T05:27:12;10.20;92.60
69503;SHT31;56704;54.242;12.442;2023-04-24T05:29:38;10.27;92.55
69503;SHT31;56704;54.242;12.442;2023-04-24T05:32:05;10.37;92.19
69503;SHT31;56704;54.242;12.442;2023-04-24T05:34:32;10.41;92.11
69503;SHT31;56704;54.242;12.442;2023-04-24T05:36:59;10.40;92.37
69503;SHT31;56704;54.242;12.442;2023-04-24T05:39:25;10.37;92.09
69503;SHT31;56704;54.242;12.442;2023-04-24T05:41:53;10.38;92.26
69503;SHT31;56704;54.242;12.442;2023-04-24T05:44:20;10.41;92.20
69503;SHT31;56704;54.242;12.442;2023-04-24T05:46:46;10.45;92.16
69503;SHT31;56704;54.242;12.442;2023-04-24T05:49:13;10.50;91.96
69503;SHT31;56704;54.242;12.442;2023-04-24T05:51:39;10.58;92.02
69503;SHT31;56704;54.242;12.442;2023-04-24T05:54:06;10.68;91.68
69503;SHT31;56704;54.242;12.442;2023-04-24T05:56:33;10.81;91.25
69503;SHT31;56704;54.242;12.442;2023-04-24T05:59:01;10.92;91.37
69503;SHT31;56704;54.242;12.442;2023-04-24T06:01:28;11.06;91.13
69503;SHT31;56704;54.242;12.442;2023-04-24T06:03:56;11.12;90.72
69503;SHT31;56704;54.242;12.442;2023-04-24T06:06:23;11.19;90.75
69503;SHT31;56704;54.242;12.442;2023-04-24T06:08:51;11.22;90.74
69503;SHT31;56704;54.242;12.442;2023-04-24T06:11:18;11.27;90.78
69503;SHT31;56704;54.242;12.442;2023-04-24T06:13:44;11.27;90.69
69503;SHT31;56704;54.242;12.442;2023-04-24T06:16:12;11.31;90.69
69503;SHT31;56704;54.242;12.442;2023-04-24T06:18:39;11.36;90.78
69503;SHT31;56704;54.242;12.442;2023-04-24T06:21:05;11.36;90.72
69503;SHT31;56704;54.242;12.442;2023-04-24T06:23:32;11.44;90.83
69503;SHT31;56704;54.242;12.442;2023-04-24T06:25:59;11.50;90.68
69503;SHT31;56704;54.242;12.442;2023-04-24T06:28:25;11.57;90.28
69503;SHT31;56704;54.242;12.442;2023-04-24T06:30:52;11.71;89.81
69503;SHT31;56704;54.242;12.442;2023-04-24T06:33:20;11.88;89.81
69503;SHT31;56704;54.242;12.442;2023-04-24T06:35:46;12.02;89.31
69503;SHT31;56704;54.242;12.442;2023-04-24T06:38:13;12.24;89.22
69503;SHT31;56704;54.242;12.442;2023-04-24T06:40:41;12.42;87.72
69503;SHT31;56704;54.242;12.442;2023-04-24T06:43:07;12.57;87.40
69503;SHT31;56704;54.242;12.442;2023-04-24T06:45:34;12.73;85.64
69503;SHT31;56704;54.242;12.442;2023-04-24T06:48:01;12.89;85.58
69503;SHT31;56704;54.242;12.442;2023-04-24T06:50:29;13.00;84.73
69503;SHT31;56704;54.242;12.442;2023-04-24T06:52:56;13.03;83.72
69503;SHT31;56704;54.242;12.442;2023-04-24T06:55:22;12.97;83.37
69503;SHT31;56704;54.242;12.442;2023-04-24T06:57:49;13.08;82.95
69503;SHT31;56704;54.242;12.442;2023-04-24T07:00:16;13.14;82.99
69503;SHT31;56704;54.242;12.442;2023-04-24T07:02:42;13.21;81.71
69503;SHT31;56704;54.242;12.442;2023-04-24T07:05:09;13.27;81.05
69503;SHT31;56704;54.242;12.442;2023-04-24T07:07:37;13.39;79.82
69503;SHT31;56704;54.242;12.442;2023-04-24T07:10:06;13.48;78.63
69503;SHT31;56704;54.242;12.442;2023-04-24T07:12:33;13.58;78.10
69503;SHT31;56704;54.242;12.442;2023-04-24T07:15:00;13.73;77.93
69503;SHT31;56704;54.242;12.442;2023-04-24T07:17:27;13.76;74.74
69503;SHT31;56704;54.242;12.442;2023-04-24T07:19:54;13.80;76.83
69503;SHT31;56704;54.242;12.442;2023-04-24T07:22:20;13.76;74.18
69503;SHT31;56704;54.242;12.442;2023-04-24T07:24:48;13.80;72.64
69503;SHT31;56704;54.242;12.442;2023-04-24T07:27:15;13.72;73.53
69503;SHT31;56704;54.242;12.442;2023-04-24T07:29:41;13.75;70.92
69503;SHT31;56704;54.242;12.442;2023-04-24T07:32:08;13.82;73.25
69503;SHT31;56704;54.242;12.442;2023-04-24T07:34:35;13.95;71.76
69503;SHT31;56704;54.242;12.442;2023-04-24T07:37:02;13.93;69.79
69503;SHT31;56704;54.242;12.442;2023-04-24T07:39:29;14.21;70.62
69503;SHT31;56704;54.242;12.442;2023-04-24T07:41:57;14.19;70.84
69503;SHT31;56704;54.242;12.442;2023-04-24T07:44:26;14.26;69.01
69503;SHT31;56704;54.242;12.442;2023-04-24T07:46:52;14.36;69.94
69503;SHT31;56704;54.242;12.442;2023-04-24T07:49:19;14.44;68.32
69503;SHT31;56704;54.242;12.442;2023-04-24T07:51:46;14.64;68.50
69503;SHT31;56704;54.242;12.442;2023-04-24T07:54:13;14.57;66.80
69503;SHT31;56704;54.242;12.442;2023-04-24T07:56:40;14.64;65.82
69503;SHT31;56704;54.242;12.442;2023-04-24T07:59:09;14.85;67.66
69503;SHT31;56704;54.242;12.442;2023-04-24T08:01:36;15.05;63.33
69503;SHT31;56704;54.242;12.442;2023-04-24T08:04:03;15.19;67.54
69503;SHT31;56704;54.242;12.442;2023-04-24T08:06:30;15.43;63.67
69503;SHT31;56704;54.242;12.442;2023-04-24T08:08:57;15.51;63.02
69503;SHT31;56704;54.242;12.442;2023-04-24T08:11:24;15.54;61.43
69503;SHT31;56704;54.242;12.442;2023-04-24T08:13:50;15.30;60.40
69503;SHT31;56704;54.242;12.442;2023-04-24T08:16:18;15.35;62.75
69503;SHT31;56704;54.242;12.442;2023-04-24T08:18:45;15.43;60.42
69503;SHT31;56704;54.242;12.442;2023-04-24T08:21:11;15.64;61.57
69503;SHT31;56704;54.242;12.442;2023-04-24T08:23:42;15.73;60.39
69503;SHT31;56704;54.242;12.442;2023-04-24T08:26:09;15.59;59.50
69503;SHT31;56704;54.242;12.442;2023-04-24T08:28:36;15.61;59.69
69503;SHT31;56704;54.242;12.442;2023-04-24T08:31:03;15.51;58.45
69503;SHT31;56704;54.242;12.442;2023-04-24T08:33:31;15.39;59.58
69503;SHT31;56704;54.242;12.442;2023-04-24T08:35:59;15.29;60.74
69503;SHT31;56704;54.242;12.442;2023-04-24T08:38:26;15.23;59.60
69503;SHT31;56704;54.242;12.442;2023-04-24T08:40:53;15.22;59.30
69503;SHT31;56704;54.242;12.442;2023-04-24T08:43:21;15.38;60.45
69503;SHT31;56704;54.242;12.442;2023-04-24T08:45:48;15.56;59.54
69503;SHT31;56704;54.242;12.442;2023-04-24T08:48:15;15.76;59.29
69503;SHT31;56704;54.242;12.442;2023-04-24T08:50:43;15.86;58.39
69503;SHT31;56704;54.242;12.442;2023-04-24T08:53:10;15.97;57.65
69503;SHT31;56704;54.242;12.442;2023-04-24T08:55:37;16.07;57.09
69503;SHT31;56704;54.242;12.442;2023-04-24T08:58:04;16.09;54.80
69503;SHT31;56704;54.242;12.442;2023-04-24T09:00:31;16.15;55.78
69503;SHT31;56704;54.242;12.442;2023-04-24T09:03:00;16.19;54.64
69503;SHT31;56704;54.242;12.442;2023-04-24T09:05:27;16.39;56.82
69503;SHT31;56704;54.242;12.442;2023-04-24T09:07:56;16.44;55.58
69503;SHT31;56704;54.242;12.442;2023-04-24T09:10:24;16.59;54.45
69503;SHT31;56704;54.242;12.442;2023-04-24T09:12:52;16.69;53.52
69503;SHT31;56704;54.242;12.442;2023-04-24T09:15:19;16.65;53.35
69503;SHT31;56704;54.242;12.442;2023-04-24T09:17:46;16.91;53.90
69503;SHT31;56704;54.242;12.442;2023-04-24T09:20:13;17.11;52.42
69503;SHT31;56704;54.242;12.442;2023-04-24T09:22:41;16.90;52.34
69503;SHT31;56704;54.242;12.442;2023-04-24T09:25:09;16.89;51.39
69503;SHT31;56704;54.242;12.442;2023-04-24T09:27:41;17.02;51.47
69503;SHT31;56704;54.242;12.442;2023-04-24T09:30:09;16.91;50.69
69503;SHT31;56704;54.242;12.442;2023-04-24T09:32:35;17.02;50.10
69503;SHT31;56704;54.242;12.442;2023-04-24T09:35:07;17.03;50.57
69503;SHT31;56704;54.242;12.442;2023-04-24T09:37:38;17.14;50.27
69503;SHT31;56704;54.242;12.442;2023-04-24T09:40:12;17.16;51.71
69503;SHT31;56704;54.242;12.442;2023-04-24T09:42:39;17.23;49.27
69503;SHT31;56704;54.242;12.442;2023-04-24T09:45:09;17.37;49.39
69503;SHT31;56704;54.242;12.442;2023-04-24T09:47:36;17.03;49.96
69503;SHT31;56704;54.242;12.442;2023-04-24T09:50:14;16.97;49.31
69503;SHT31;56704;54.242;12.442;2023-04-24T09:52:43;17.08;50.23
69503;SHT31;56704;54.242;12.442;2023-04-24T09:55:18;16.97;48.63
69503;SHT31;56704;54.242;12.442;2023-04-24T09:57:49;16.79;50.25
69503;SHT31;56704;54.242;12.442;2023-04-24T10:00:22;16.68;51.56
69503;SHT31;56704;54.242;12.442;2023-04-24T10:02:56;16.81;50.91
69503;SHT31;56704;54.242;12.442;2023-04-24T10:05:30;17.04;51.30
69503;SHT31;56704;54.242;12.442;2023-04-24T10:08:00;17.03;48.79
69503;SHT31;56704;54.242;12.442;2023-04-24T10:10:33;17.28;50.75
69503;SHT31;56704;54.242;12.442;2023-04-24T10:13:00;17.00;50.67
69503;SHT31;56704;54.242;12.442;2023-04-24T10:15:28;16.89;50.78
69503;SHT31;56704;54.242;12.442;2023-04-24T10:17:55;16.73;51.50
69503;SHT31;56704;54.242;12.442;2023-04-24T10:20:25;16.58;51.28
69503;SHT31;56704;54.242;12.442;2023-04-24T10:22:55;16.60;51.80
69503;SHT31;56704;54.242;12.442;2023-04-24T10:25:23;17.06;52.01
69503;SHT31;56704;54.242;12.442;2023-04-24T10:27:52;16.91;51.96
69503;SHT31;56704;54.242;12.442;2023-04-24T10:30:22;17.34;50.87
69503;SHT31;56704;54.242;12.442;2023-04-24T10:32:49;17.37;50.65
69503;SHT31;56704;54.242;12.442;2023-04-24T10:35:17;17.96;51.61
69503;SHT31;56704;54.242;12.442;2023-04-24T10:37:50;18.26;50.75
69503;SHT31;56704;54.242;12.442;2023-04-24T10:40:18;18.64;49.13
69503;SHT31;56704;54.242;12.442;2023-04-24T10:42:47;18.46;49.05
69503;SHT31;56704;54.242;12.442;2023-04-24T10:45:19;18.40;50.79
69503;SHT31;56704;54.242;12.442;2023-04-24T10:47:56;18.51;49.67
69503;SHT31;56704;54.242;12.442;2023-04-24T10:50:23;18.33;51.13
69503;SHT31;56704;54.242;12.442;2023-04-24T10:52:50;18.50;50.25
69503;SHT31;56704;54.242;12.442;2023-04-24T10:55:39;18.32;50.26
69503;SHT31;56704;54.242;12.442;2023-04-24T10:58:06;18.25;51.30
69503;SHT31;56704;54.242;12.442;2023-04-24T11:00:36;18.63;51.26
69503;SHT31;56704;54.242;12.442;2023-04-24T11:03:04;19.05;50.35
69503;SHT31;56704;54.242;12.442;2023-04-24T11:05:59;19.33;48.97
69503;SHT31;56704;54.242;12.442;2023-04-24T11:08:28;19.30;47.69
69503;SHT31;56704;54.242;12.442;2023-04-24T11:11:03;19.36;46.82
69503;SHT31;56704;54.242;12.442;2023-04-24T11:14:02;19.01;48.52
69503;SHT31;56704;54.242;12.442;2023-04-24T11:16:31;18.95;49.74
69503;SHT31;56704;54.242;12.442;2023-04-24T11:19:04;19.07;47.67
69503;SHT31;56704;54.242;12.442;2023-04-24T11:21:32;19.11;49.19
69503;SHT31;56704;54.242;12.442;2023-04-24T11:24:26;18.56;48.53
69503;SHT31;56704;54.242;12.442;2023-04-24T11:26:54;18.14;49.51
69503;SHT31;56704;54.242;12.442;2023-04-24T11:29:22;17.88;52.15
69503;SHT31;56704;54.242;12.442;2023-04-24T11:31:50;17.72;52.28
69503;SHT31;56704;54.242;12.442;2023-04-24T11:34:18;17.30;52.74
69503;SHT31;56704;54.242;12.442;2023-04-24T11:36:44;17.16;53.20
69503;SHT31;56704;54.242;12.442;2023-04-24T11:39:11;16.86;54.65
69503;SHT31;56704;54.242;12.442;2023-04-24T11:41:38;16.84;54.53
69503;SHT31;56704;54.242;12.442;2023-04-24T11:44:06;16.90;54.04
69503;SHT31;56704;54.242;12.442;2023-04-24T11:46:33;17.04;55.52
69503;SHT31;56704;54.242;12.442;2023-04-24T11:49:01;17.34;55.19
69503;SHT31;56704;54.242;12.442;2023-04-24T11:51:28;17.64;52.98
69503;SHT31;56704;54.242;12.442;2023-04-24T11:53:55;17.85;52.58
69503;SHT31;56704;54.242;12.442;2023-04-24T11:56:22;18.09;51.80
69503;SHT31;56704;54.242;12.442;2023-04-24T11:58:51;18.02;51.66
69503;SHT31;56704;54.242;12.442;2023-04-24T12:01:19;18.08;52.62
69503;SHT31;56704;54.242;12.442;2023-04-24T12:03:48;17.95;52.56
69503;SHT31;56704;54.242;12.442;2023-04-24T12:06:17;17.85;52.64
69503;SHT31;56704;54.242;12.442;2023-04-24T12:08:46;17.76;52.63
69503;SHT31;56704;54.242;12.442;2023-04-24T12:11:15;17.76;53.08
69503;SHT31;56704;54.242;12.442;2023-04-24T12:13:43;18.02;53.15
69503;SHT31;56704;54.242;12.442;2023-04-24T12:16:10;17.93;52.42
69503;SHT31;56704;54.242;12.442;2023-04-24T12:18:41;18.05;52.49
69503;SHT31;56704;54.242;12.442;2023-04-24T12:21:16;19.40;49.86
69503;SHT31;56704;54.242;12.442;2023-04-24T12:23:43;19.47;49.03
69503;SHT31;56704;54.242;12.442;2023-04-24T12:26:10;19.20;48.61
69503;SHT31;56704;54.242;12.442;2023-04-24T12:28:38;18.47;49.81
69503;SHT31;56704;54.242;12.442;2023-04-24T12:31:06;18.44;50.38
69503;SHT31;56704;54.242;12.442;2023-04-24T12:33:33;18.17;50.38
69503;SHT31;56704;54.242;12.442;2023-04-24T12:36:00;17.86;51.25
69503;SHT31;56704;54.242;12.442;2023-04-24T12:38:29;17.90;51.60
69503;SHT31;56704;54.242;12.442;2023-04-24T12:41:03;18.14;51.23
69503;SHT31;56704;54.242;12.442;2023-04-24T12:43:30;18.67;50.01
69503;SHT31;56704;54.242;12.442;2023-04-24T12:45:57;18.81;51.41
69503;SHT31;56704;54.242;12.442;2023-04-24T12:48:24;18.41;51.59
69503;SHT31;56704;54.242;12.442;2023-04-24T12:50:51;18.23;52.10
69503;SHT31;56704;54.242;12.442;2023-04-24T12:53:17;18.10;52.69
69503;SHT31;56704;54.242;12.442;2023-04-24T12:55:45;18.02;53.62
69503;SHT31;56704;54.242;12.442;2023-04-24T12:58:17;17.75;52.70
69503;SHT31;56704;54.242;12.442;2023-04-24T13:00:44;17.72;53.54
69503;SHT31;56704;54.242;12.442;2023-04-24T13:03:11;17.88;54.48
69503;SHT31;56704;54.242;12.442;2023-04-24T13:05:38;17.65;53.54
69503;SHT31;56704;54.242;12.442;2023-04-24T13:08:05;17.71;53.42
69503;SHT31;56704;54.242;12.442;2023-04-24T13:10:31;17.67;54.25
69503;SHT31;56704;54.242;12.442;2023-04-24T13:12:59;17.57;55.30
69503;SHT31;56704;54.242;12.442;2023-04-24T13:15:26;17.32;55.13
69503;SHT31;56704;54.242;12.442;2023-04-24T13:17:52;16.99;54.68
69503;SHT31;56704;54.242;12.442;2023-04-24T13:20:19;16.73;56.41
69503;SHT31;56704;54.242;12.442;2023-04-24T13:22:45;16.65;56.67
69503;SHT31;56704;54.242;12.442;2023-04-24T13:25:12;16.30;57.88
69503;SHT31;56704;54.242;12.442;2023-04-24T13:27:42;16.11;59.19
69503;SHT31;56704;54.242;12.442;2023-04-24T13:30:11;15.83;59.18
69503;SHT31;56704;54.242;12.442;2023-04-24T13:32:37;15.43;60.56
69503;SHT31;56704;54.242;12.442;2023-04-24T13:35:05;15.13;61.42
69503;SHT31;56704;54.242;12.442;2023-04-24T13:37:31;15.06;61.98
69503;SHT31;56704;54.242;12.442;2023-04-24T13:39:58;14.95;62.54
69503;SHT31;56704;54.242;12.442;2023-04-24T13:42:25;14.89;63.55
69503;SHT31;56704;54.242;12.442;2023-04-24T13:44:52;14.78;64.36
69503;SHT31;56704;54.242;12.442;2023-04-24T13:47:20;14.56;67.01
69503;SHT31;56704;54.242;12.442;2023-04-24T13:49:47;14.38;68.10
69503;SHT31;56704;54.242;12.442;2023-04-24T13:52:13;14.27;67.39
69503;SHT31;56704;54.242;12.442;2023-04-24T13:54:40;14.34;67.30
69503;SHT31;56704;54.242;12.442;2023-04-24T13:57:07;14.41;66.38
69503;SHT31;56704;54.242;12.442;2023-04-24T13:59:34;14.44;65.96
69503;SHT31;56704;54.242;12.442;2023-04-24T14:02:00;14.37;67.03
69503;SHT31;56704;54.242;12.442;2023-04-24T14:04:28;14.38;67.31
69503;SHT31;56704;54.242;12.442;2023-04-24T14:06:55;14.27;65.24
69503;SHT31;56704;54.242;12.442;2023-04-24T14:09:22;14.23;65.73
69503;SHT31;56704;54.242;12.442;2023-04-24T14:11:49;14.17;65.11
69503;SHT31;56704;54.242;12.442;2023-04-24T14:14:15;14.21;64.88
69503;SHT31;56704;54.242;12.442;2023-04-24T14:16:42;14.30;65.41
69503;SHT31;56704;54.242;12.442;2023-04-24T14:19:08;14.23;64.94
69503;SHT31;56704;54.242;12.442;2023-04-24T14:21:36;14.23;64.73
69503;SHT31;56704;54.242;12.442;2023-04-24T14:24:03;14.24;64.73
69503;SHT31;56704;54.242;12.442;2023-04-24T14:26:29;14.29;63.98
69503;SHT31;56704;54.242;12.442;2023-04-24T14:28:56;14.40;63.98
69503;SHT31;56704;54.242;12.442;2023-04-24T14:31:24;14.57;62.61
69503;SHT31;56704;54.242;12.442;2023-04-24T14:33:50;14.77;62.95
69503;SHT31;56704;54.242;12.442;2023-04-24T14:36:17;15.15;62.17
69503;SHT31;56704;54.242;12.442;2023-04-24T14:38:45;16.28;59.16
69503;SHT31;56704;54.242;12.442;2023-04-24T14:41:11;17.03;57.89
69503;SHT31;56704;54.242;12.442;2023-04-24T14:43:39;17.47;55.22
69503;SHT31;56704;54.242;12.442;2023-04-24T14:46:05;17.34;52.55
69503;SHT31;56704;54.242;12.442;2023-04-24T14:48:32;17.04;53.77
69503;SHT31;56704;54.242;12.442;2023-04-24T14:50:58;17.16;54.10
69503;SHT31;56704;54.242;12.442;2023-04-24T14:53:25;17.14;53.55
69503;SHT31;56704;54.242;12.442;2023-04-24T14:55:53;17.65;54.35
69503;SHT31;56704;54.242;12.442;2023-04-24T14:58:20;17.82;52.96
69503;SHT31;56704;54.242;12.442;2023-04-24T15:00:46;17.82;51.44
69503;SHT31;56704;54.242;12.442;2023-04-24T15:03:15;17.64;51.01
69503;SHT31;56704;54.242;12.442;2023-04-24T15:05:42;17.65;51.84
69503;SHT31;56704;54.242;12.442;2023-04-24T15:08:09;17.79;50.20
69503;SHT31;56704;54.242;12.442;2023-04-24T15:10:35;18.16;50.81
69503;SHT31;56704;54.242;12.442;2023-04-24T15:13:03;17.82;50.19
69503;SHT31;56704;54.242;12.442;2023-04-24T15:15:30;17.64;51.04
69503;SHT31;56704;54.242;12.442;2023-04-24T15:17:56;17.67;51.04
69503;SHT31;56704;54.242;12.442;2023-04-24T15:20:23;17.59;50.99
69503;SHT31;56704;54.242;12.442;2023-04-24T15:22:50;17.37;51.34